createdAt,value
2018-06-11T00:01:10.546Z,15.65
2018-06-11T00:03:38.362Z,15.63
2018-06-11T00:06:05.381Z,15.74
2018-06-11T00:08:32.423Z,15.80
2018-06-11T00:10:59.466Z,15.85
2018-06-11T00:13:26.476Z,15.81
2018-06-11T00:15:53.600Z,15.75
2018-06-11T00:18:20.597Z,15.72
2018-06-11T00:20:47.721Z,15.69
2018-06-11T00:23:14.712Z,15.76
2018-06-11T00:25:41.801Z,15.78
2018-06-11T00:28:09.115Z,15.66
2018-06-11T00:30:36.109Z,15.71
2018-06-11T00:33:03.105Z,15.69
2018-06-11T00:35:30.115Z,15.66
2018-06-11T00:37:57.137Z,15.61
2018-06-11T00:40:24.261Z,15.65
2018-06-11T00:42:51.352Z,15.61
2018-06-11T00:45:18.441Z,15.58
2018-06-11T00:47:46.264Z,15.59
2018-06-11T00:50:13.423Z,15.60
2018-06-11T00:52:40.521Z,15.56
2018-06-11T00:55:07.524Z,15.48
2018-06-11T00:57:34.524Z,15.45
2018-06-11T01:00:01.572Z,15.32
2018-06-11T01:02:28.573Z,15.22
2018-06-11T01:04:55.574Z,15.23
2018-06-11T01:07:24.181Z,15.36
2018-06-11T01:09:51.285Z,15.30
2018-06-11T01:12:18.297Z,15.11
2018-06-11T01:14:45.389Z,15.09
2018-06-11T01:17:12.410Z,15.23
2018-06-11T01:19:39.429Z,15.07
2018-06-11T01:22:06.449Z,15.02
2018-06-11T01:24:33.467Z,15.21
2018-06-11T01:27:00.590Z,15.16
2018-06-11T01:29:27.609Z,15.10
2018-06-11T01:31:54.614Z,15.16
2018-06-11T01:34:21.642Z,15.04
2018-06-11T01:36:48.760Z,15.03
2018-06-11T01:39:15.810Z,15.05
2018-06-11T01:41:43.113Z,15.10
2018-06-11T01:44:10.134Z,15.12
2018-06-11T01:46:37.149Z,15.17
2018-06-11T01:49:04.587Z,15.10
2018-06-11T01:51:31.644Z,15.15
2018-06-11T01:53:58.813Z,15.17
2018-06-11T01:56:25.853Z,15.26
2018-06-11T01:58:52.899Z,15.29
2018-06-11T02:01:19.915Z,15.15
2018-06-11T02:03:47.099Z,15.22
2018-06-11T02:06:14.118Z,15.19
2018-06-11T02:08:41.132Z,15.26
2018-06-11T02:11:08.329Z,15.14
2018-06-11T02:13:35.355Z,15.20
2018-06-11T02:16:02.487Z,15.19
2018-06-11T02:18:29.538Z,15.22
2018-06-11T02:20:56.546Z,15.22
2018-06-11T02:23:23.645Z,15.23
2018-06-11T02:25:50.754Z,15.29
2018-06-11T02:28:17.781Z,15.31
2018-06-11T02:30:44.893Z,15.35
2018-06-11T02:33:11.917Z,15.48
2018-06-11T02:35:38.943Z,15.55
2018-06-11T02:38:05.996Z,15.35
2018-06-11T02:40:33.002Z,15.77
2018-06-11T02:43:00.468Z,15.81
2018-06-11T02:45:27.585Z,15.78
2018-06-11T02:47:54.677Z,15.76
2018-06-11T02:50:21.707Z,15.91
2018-06-11T02:52:48.762Z,15.84
2018-06-11T02:55:15.879Z,15.70
2018-06-11T02:57:42.905Z,15.92
2018-06-11T03:00:09.943Z,16.02
2018-06-11T03:02:37.033Z,16.02
2018-06-11T03:05:04.375Z,16.09
2018-06-11T03:07:31.705Z,16.01
2018-06-11T03:09:58.743Z,15.89
2018-06-11T03:12:25.850Z,15.94
2018-06-11T03:14:52.865Z,15.97
2018-06-11T03:17:20.022Z,15.98
2018-06-11T03:19:47.037Z,16.15
2018-06-11T03:22:14.157Z,15.97
2018-06-11T03:24:41.282Z,16.00
2018-06-11T03:27:08.394Z,16.02
2018-06-11T03:29:35.565Z,16.17
2018-06-11T03:32:02.872Z,16.20
2018-06-11T03:34:30.137Z,16.20
2018-06-11T03:36:57.316Z,15.96
2018-06-11T03:39:24.402Z,16.04
2018-06-11T03:41:51.422Z,15.85
2018-06-11T03:44:18.445Z,15.79
2018-06-11T03:46:45.471Z,15.76
2018-06-11T03:49:12.564Z,15.84
2018-06-11T03:51:39.884Z,15.99
2018-06-11T03:54:06.889Z,15.85
2018-06-11T03:56:33.946Z,15.91
2018-06-11T03:59:01.156Z,15.72
2018-06-11T04:01:28.270Z,15.88
2018-06-11T04:03:56.743Z,15.83
2018-06-11T04:06:24.064Z,15.63
2018-06-11T04:08:51.114Z,15.59
2018-06-11T04:11:18.360Z,15.58
2018-06-11T04:13:46.769Z,15.60
2018-06-11T04:16:18.282Z,15.61
2018-06-11T04:18:45.720Z,15.81
2018-06-11T04:21:12.720Z,15.76
2018-06-11T04:23:39.714Z,15.62
2018-06-11T04:26:06.815Z,15.77
2018-06-11T04:28:33.910Z,15.75
2018-06-11T04:31:01.010Z,15.89
2018-06-11T04:33:28.061Z,15.88
2018-06-11T04:35:55.187Z,15.87
2018-06-11T04:38:22.384Z,15.96
2018-06-11T04:40:49.531Z,16.10
2018-06-11T04:43:16.577Z,16.08
2018-06-11T04:45:43.661Z,16.04
2018-06-11T04:48:10.768Z,16.13
2018-06-11T04:50:37.885Z,16.31
2018-06-11T04:53:04.917Z,16.05
2018-06-11T04:55:31.974Z,16.00
2018-06-11T04:57:59.360Z,16.02
2018-06-11T05:00:26.573Z,16.16
2018-06-11T05:02:53.585Z,16.00
2018-06-11T05:05:20.916Z,16.10
2018-06-11T05:07:47.926Z,16.16
2018-06-11T05:10:14.949Z,16.30
2018-06-11T05:12:42.062Z,16.12
2018-06-11T05:15:09.088Z,16.23
2018-06-11T05:17:36.178Z,16.35
2018-06-11T05:20:03.242Z,16.31
2018-06-11T05:22:30.262Z,16.24
2018-06-11T05:24:57.274Z,16.21
2018-06-11T05:27:24.383Z,16.19
2018-06-11T05:29:51.418Z,16.36
2018-06-11T05:32:18.522Z,16.42
2018-06-11T05:34:45.645Z,16.44
2018-06-11T05:37:12.680Z,16.38
2018-06-11T05:39:39.690Z,16.27
2018-06-11T05:42:06.729Z,16.36
2018-06-11T05:44:33.982Z,16.43
2018-06-11T05:47:01.527Z,16.36
2018-06-11T05:49:28.566Z,16.38
2018-06-11T05:51:55.601Z,16.51
2018-06-11T05:54:22.745Z,16.47
2018-06-11T05:56:49.773Z,16.39
2018-06-11T05:59:16.829Z,16.38
2018-06-11T06:01:43.998Z,16.36
2018-06-11T06:04:11.098Z,16.43
2018-06-11T06:06:38.161Z,16.55
2018-06-11T06:09:06.299Z,16.62
2018-06-11T06:11:33.453Z,16.48
2018-06-11T06:14:00.487Z,16.47
2018-06-11T06:16:27.498Z,16.36
2018-06-11T06:18:54.538Z,16.45
2018-06-11T06:21:21.937Z,16.52
2018-06-11T06:23:49.041Z,16.48
2018-06-11T06:26:16.063Z,16.55
2018-06-11T06:28:43.166Z,16.45
2018-06-11T06:31:10.262Z,16.72
2018-06-11T06:33:37.285Z,16.84
2018-06-11T06:36:04.414Z,16.84
2018-06-11T06:38:31.504Z,16.87
2018-06-11T06:40:58.546Z,16.93
2018-06-11T06:43:25.766Z,16.94
2018-06-11T06:45:52.777Z,17.09
2018-06-11T06:48:19.793Z,17.32
2018-06-11T06:50:46.823Z,17.45
2018-06-11T06:53:13.855Z,17.47
2018-06-11T06:55:40.951Z,17.35
2018-06-11T06:58:07.988Z,17.32
2018-06-11T07:00:35.106Z,17.28
2018-06-11T07:03:02.149Z,17.23
2018-06-11T07:05:29.253Z,17.24
2018-06-11T07:07:56.473Z,17.49
2018-06-11T07:10:23.584Z,17.38
2018-06-11T07:12:50.698Z,17.40
2018-06-11T07:15:18.760Z,17.53
2018-06-11T07:17:45.825Z,17.58
2018-06-11T07:20:13.012Z,17.59
2018-06-11T07:22:40.109Z,17.72
2018-06-11T07:25:07.231Z,17.68
2018-06-11T07:27:34.334Z,17.70
2018-06-11T07:30:01.465Z,17.51
2018-06-11T07:32:28.618Z,17.61
2018-06-11T07:34:55.756Z,17.50
2018-06-11T07:37:22.781Z,17.69
2018-06-11T07:39:49.882Z,17.72
2018-06-11T07:42:17.074Z,17.75
2018-06-11T07:44:44.187Z,17.85
2018-06-11T07:47:11.215Z,17.80
2018-06-11T07:49:38.317Z,17.79
2018-06-11T07:52:05.469Z,17.93
2018-06-11T07:54:32.576Z,18.03
2018-06-11T07:56:59.669Z,17.86
2018-06-11T07:59:26.698Z,17.94
2018-06-11T08:01:53.789Z,17.89
2018-06-11T08:04:20.818Z,18.08
2018-06-11T08:06:47.842Z,17.97
2018-06-11T08:09:14.878Z,18.03
2018-06-11T08:11:41.954Z,18.16
2018-06-11T08:14:09.087Z,18.23
2018-06-11T08:16:36.241Z,18.40
2018-06-11T08:19:03.341Z,18.27
2018-06-11T08:21:30.347Z,18.29
2018-06-11T08:23:57.448Z,18.24
2018-06-11T08:26:24.477Z,18.23
2018-06-11T08:28:51.509Z,18.19
2018-06-11T08:31:18.606Z,18.31
2018-06-11T08:33:45.645Z,18.45
2018-06-11T08:36:12.690Z,18.59
2018-06-11T08:38:39.729Z,18.57
2018-06-11T08:41:06.752Z,18.43
2018-06-11T08:43:33.821Z,18.57
2018-06-11T08:46:00.918Z,18.47
2018-06-11T08:48:27.947Z,18.63
2018-06-11T08:50:54.990Z,18.96
2018-06-11T08:53:22.013Z,19.11
2018-06-11T08:55:49.128Z,19.18
2018-06-11T08:58:16.434Z,19.29
2018-06-11T09:00:43.466Z,19.20
2018-06-11T09:03:10.495Z,19.05
2018-06-11T09:05:37.662Z,18.92
2018-06-11T09:08:04.707Z,18.80
2018-06-11T09:10:31.726Z,19.08
2018-06-11T09:12:58.740Z,19.19
2018-06-11T09:15:25.771Z,19.35
2018-06-11T09:17:52.848Z,19.47
2018-06-11T09:20:19.913Z,19.44
2018-06-11T09:22:47.038Z,19.23
2018-06-11T09:25:14.071Z,18.99
2018-06-11T09:27:41.086Z,19.04
2018-06-11T09:30:08.151Z,19.18
2018-06-11T09:32:35.207Z,19.35
2018-06-11T09:35:02.247Z,19.44
2018-06-11T09:37:29.462Z,19.67
2018-06-11T09:39:56.497Z,19.56
2018-06-11T09:42:23.521Z,19.78
2018-06-11T09:44:50.837Z,19.69
2018-06-11T09:47:17.855Z,19.78
2018-06-11T09:49:44.947Z,20.11
2018-06-11T09:52:11.993Z,19.42
2018-06-11T09:54:39.033Z,19.24
2018-06-11T09:57:06.141Z,19.27
2018-06-11T09:59:33.168Z,19.69
2018-06-11T10:02:00.284Z,19.82
2018-06-11T10:04:27.341Z,19.71
2018-06-11T10:06:54.463Z,19.59
2018-06-11T10:09:21.545Z,19.85
2018-06-11T10:11:48.570Z,19.66
2018-06-11T10:14:15.589Z,19.76
2018-06-11T10:16:42.693Z,19.60
2018-06-11T10:19:09.755Z,19.32
2018-06-11T10:21:36.743Z,19.48
2018-06-11T10:24:03.781Z,19.95
2018-06-11T10:26:30.877Z,20.19
2018-06-11T10:28:57.990Z,20.14
2018-06-11T10:31:25.008Z,19.89
2018-06-11T10:33:52.017Z,19.93
2018-06-11T10:36:19.030Z,19.93
2018-06-11T10:38:46.145Z,20.28
2018-06-11T10:41:13.208Z,20.14
2018-06-11T10:43:40.309Z,19.96
2018-06-11T10:46:07.314Z,19.78
2018-06-11T10:48:34.417Z,19.69
2018-06-11T10:51:01.422Z,19.87
2018-06-11T10:53:28.449Z,20.15
2018-06-11T10:55:55.445Z,20.08
2018-06-11T10:58:22.479Z,19.92
2018-06-11T11:00:49.513Z,20.22
2018-06-11T11:03:16.505Z,20.22
2018-06-11T11:05:43.519Z,20.38
2018-06-11T11:08:10.549Z,20.23
2018-06-11T11:10:37.574Z,20.13
2018-06-11T11:13:04.667Z,20.04
2018-06-11T11:15:31.641Z,20.11
2018-06-11T11:17:58.778Z,20.33
2018-06-11T11:20:25.814Z,20.54
2018-06-11T11:22:52.925Z,20.37
2018-06-11T11:25:19.954Z,20.73
2018-06-11T11:27:46.967Z,20.57
2018-06-11T11:30:13.995Z,20.24
2018-06-11T11:32:41.012Z,20.22
2018-06-11T11:35:08.105Z,20.19
2018-06-11T11:37:35.514Z,20.35
2018-06-11T11:40:02.653Z,20.21
2018-06-11T11:42:29.819Z,20.23
2018-06-11T11:44:56.874Z,20.32
2018-06-11T11:47:23.879Z,20.36
2018-06-11T11:49:50.885Z,20.28
2018-06-11T11:52:17.925Z,20.23
2018-06-11T11:54:45.026Z,20.65
2018-06-11T11:57:12.041Z,21.01
2018-06-11T11:59:39.091Z,21.05
2018-06-11T12:02:06.194Z,20.76
2018-06-11T12:04:33.290Z,20.56
2018-06-11T12:07:00.320Z,20.61
2018-06-11T12:09:27.421Z,20.74
2018-06-11T12:11:54.470Z,20.63
2018-06-11T12:14:21.489Z,20.78
2018-06-11T12:16:48.515Z,20.50
2018-06-11T12:19:15.635Z,20.54
2018-06-11T12:21:42.653Z,20.53
2018-06-11T12:24:09.696Z,20.80
2018-06-11T12:26:36.822Z,21.01
2018-06-11T12:29:03.928Z,21.32
2018-06-11T12:31:30.928Z,21.80
2018-06-11T12:33:57.957Z,21.78
2018-06-11T12:36:25.041Z,21.71
2018-06-11T12:38:52.086Z,21.68
2018-06-11T12:41:19.206Z,21.52
2018-06-11T12:43:46.226Z,21.52
2018-06-11T12:46:13.250Z,21.24
2018-06-11T12:48:40.350Z,20.89
2018-06-11T12:51:07.547Z,20.99
2018-06-11T12:53:34.970Z,20.93
2018-06-11T12:56:02.461Z,21.59
2018-06-11T12:58:29.485Z,21.40
2018-06-11T13:00:56.504Z,21.84
2018-06-11T13:03:23.521Z,21.81
2018-06-11T13:05:50.653Z,21.97
2018-06-11T13:08:17.887Z,22.01
2018-06-11T13:10:44.962Z,22.75
2018-06-11T13:13:12.093Z,22.33
2018-06-11T13:15:39.110Z,22.40
2018-06-11T13:18:06.207Z,22.23
2018-06-11T13:20:33.508Z,22.05
2018-06-11T13:23:00.703Z,21.76
2018-06-11T13:25:27.791Z,21.89
2018-06-11T13:27:54.898Z,22.21
2018-06-11T13:30:21.938Z,22.65
2018-06-11T13:32:48.951Z,21.89
2018-06-11T13:35:16.014Z,21.71
2018-06-11T13:37:43.042Z,22.04
2018-06-11T13:40:10.086Z,21.88
2018-06-11T13:42:37.105Z,21.50
2018-06-11T13:45:04.526Z,21.70
2018-06-11T13:47:31.735Z,21.42
2018-06-11T13:49:58.837Z,21.48
2018-06-11T13:52:25.985Z,22.02
2018-06-11T13:54:53.333Z,21.54
2018-06-11T13:57:20.345Z,22.03
2018-06-11T13:59:47.358Z,22.06
2018-06-11T14:02:14.563Z,21.83
2018-06-11T14:04:41.586Z,21.27
2018-06-11T14:07:08.747Z,21.50
2018-06-11T14:09:35.851Z,21.54
2018-06-11T14:12:02.985Z,21.67
2018-06-11T14:14:29.998Z,22.21
2018-06-11T14:16:57.012Z,22.74
2018-06-11T14:19:24.043Z,21.93
2018-06-11T14:21:51.143Z,21.80
2018-06-11T14:24:18.140Z,21.33
2018-06-11T14:26:45.218Z,21.17
2018-06-11T14:29:12.329Z,21.02
2018-06-11T14:31:39.446Z,20.99
2018-06-11T14:34:06.502Z,21.06
2018-06-11T14:36:33.521Z,20.79
2018-06-11T14:39:00.725Z,21.36
2018-06-11T14:41:27.739Z,21.42
2018-06-11T14:43:54.837Z,21.94
2018-06-11T14:46:21.942Z,22.53
2018-06-11T14:48:48.961Z,22.01
2018-06-11T14:51:16.073Z,22.20
2018-06-11T14:53:43.086Z,22.04
2018-06-11T14:56:10.107Z,22.17
2018-06-11T14:58:37.577Z,22.11
2018-06-11T15:01:04.610Z,22.14
2018-06-11T15:03:31.711Z,21.84
2018-06-11T15:05:58.756Z,21.68
2018-06-11T15:08:25.863Z,21.40
2018-06-11T15:10:52.880Z,21.85
2018-06-11T15:15:54.182Z,21.54
2018-06-11T15:18:21.276Z,21.31
2018-06-11T15:20:48.301Z,21.36
2018-06-11T15:23:15.322Z,21.38
2018-06-11T15:25:42.352Z,21.17
2018-06-11T15:28:09.365Z,21.31
2018-06-11T15:30:36.554Z,21.92
2018-06-11T15:33:03.926Z,22.06
2018-06-11T15:35:30.929Z,21.47
2018-06-11T15:37:57.947Z,21.44
2018-06-11T15:40:25.070Z,21.75
2018-06-11T15:42:52.173Z,22.08
2018-06-11T15:45:19.216Z,21.36
2018-06-11T15:47:46.237Z,21.55
2018-06-11T15:50:13.295Z,21.63
2018-06-11T15:52:40.329Z,21.38
2018-06-11T15:55:07.356Z,21.52
2018-06-11T15:57:34.542Z,21.59
2018-06-11T16:00:01.618Z,21.24
2018-06-11T16:02:28.645Z,21.35
2018-06-11T16:04:55.667Z,21.62
2018-06-11T16:07:22.707Z,21.58
2018-06-11T16:09:49.733Z,21.16
2018-06-11T16:14:50.786Z,21.55
2018-06-11T16:17:17.818Z,21.55
2018-06-11T16:19:44.828Z,21.06
2018-06-11T16:22:11.873Z,21.12
2018-06-11T16:24:39.133Z,21.46
2018-06-11T16:27:06.183Z,20.99
2018-06-11T16:29:33.204Z,20.59
2018-06-11T16:32:00.301Z,20.89
2018-06-11T16:34:27.326Z,20.76
2018-06-11T16:36:54.518Z,20.33
2018-06-11T16:39:21.613Z,20.69
2018-06-11T16:41:48.655Z,20.73
2018-06-11T16:44:15.675Z,20.29
2018-06-11T16:46:42.766Z,20.63
2018-06-11T16:49:09.870Z,20.46
2018-06-11T16:51:36.895Z,20.25
2018-06-11T16:54:04.099Z,19.92
2018-06-11T16:56:31.105Z,20.06
2018-06-11T16:58:58.109Z,19.80
2018-06-11T17:01:25.141Z,19.62
2018-06-11T17:03:52.229Z,19.52
2018-06-11T17:06:19.243Z,19.59
2018-06-11T17:08:46.256Z,19.48
2018-06-11T17:11:13.361Z,19.39
2018-06-11T17:13:40.390Z,19.38
2018-06-11T17:16:07.505Z,19.22
2018-06-11T17:18:34.520Z,19.18
2018-06-11T17:21:01.554Z,19.13
2018-06-11T17:23:28.582Z,18.95
2018-06-11T17:25:55.621Z,18.87
2018-06-11T17:28:22.637Z,18.93
2018-06-11T17:30:49.672Z,18.75
2018-06-11T17:33:16.947Z,18.80
2018-06-11T17:35:44.030Z,18.63
2018-06-11T17:38:11.058Z,18.55
2018-06-11T17:40:38.194Z,18.62
2018-06-11T17:43:05.237Z,18.50
2018-06-11T17:45:32.862Z,18.46
2018-06-11T17:47:59.956Z,18.48
2018-06-11T17:50:27.063Z,18.52
2018-06-11T17:52:54.196Z,18.23
2018-06-11T17:55:21.285Z,18.14
2018-06-11T17:57:48.471Z,18.15
2018-06-11T18:00:15.449Z,17.94
2018-06-11T18:02:42.477Z,17.96
2018-06-11T18:05:09.594Z,17.97
2018-06-11T18:07:36.705Z,17.91
2018-06-11T18:10:03.760Z,17.75
2018-06-11T18:12:30.939Z,17.69
2018-06-11T18:14:58.142Z,17.72
2018-06-11T18:17:25.258Z,17.61
2018-06-11T18:19:52.453Z,17.57
2018-06-11T18:22:19.453Z,17.54
2018-06-11T18:24:46.485Z,17.51
2018-06-11T18:27:13.518Z,17.32
2018-06-11T18:29:40.541Z,17.18
2018-06-11T18:32:07.553Z,17.04
2018-06-11T18:34:34.699Z,17.00
2018-06-11T18:37:01.721Z,16.93
2018-06-11T18:39:28.825Z,16.88
2018-06-11T18:41:56.112Z,16.96
2018-06-11T18:44:23.073Z,16.76
2018-06-11T18:46:50.369Z,16.60
2018-06-11T18:49:17.390Z,16.53
2018-06-11T18:51:44.414Z,16.41
2018-06-11T18:54:11.569Z,16.54
2018-06-11T18:56:38.573Z,16.51
2018-06-11T18:59:05.654Z,16.45
2018-06-11T19:01:32.690Z,16.46
2018-06-11T19:03:59.796Z,16.43
2018-06-11T19:06:26.889Z,16.32
2018-06-11T19:08:53.901Z,16.16
2018-06-11T19:11:21.016Z,16.15
2018-06-11T19:13:48.126Z,16.23
2018-06-11T19:16:15.228Z,16.16
2018-06-11T19:18:42.262Z,16.18
2018-06-11T19:21:09.273Z,16.23
2018-06-11T19:23:36.288Z,16.24
2018-06-11T19:26:03.346Z,16.16
2018-06-11T19:28:30.404Z,16.13
2018-06-11T19:30:57.526Z,16.09
2018-06-11T19:33:24.548Z,16.13
2018-06-11T19:35:51.677Z,16.08
2018-06-11T19:38:18.790Z,16.02
2018-06-11T19:40:45.924Z,15.97
2018-06-11T19:43:13.027Z,15.90
2018-06-11T19:45:40.114Z,15.95
2018-06-11T19:48:07.125Z,15.89
2018-06-11T19:50:34.169Z,15.87
2018-06-11T19:53:01.322Z,15.69
2018-06-11T19:55:35.367Z,15.71
2018-06-11T19:58:02.569Z,15.69
2018-06-11T20:00:29.680Z,15.73
2018-06-11T20:02:56.726Z,15.73
2018-06-11T20:05:24.050Z,15.77
2018-06-11T20:07:51.181Z,15.77
2018-06-11T20:10:18.297Z,15.81
2018-06-11T20:12:45.315Z,15.78
2018-06-11T20:15:12.335Z,15.82
2018-06-11T20:17:39.349Z,15.73
2018-06-11T20:20:06.372Z,15.65
2018-06-11T20:22:33.490Z,15.74
2018-06-11T20:25:00.582Z,15.84
2018-06-11T20:27:27.708Z,15.68
2018-06-11T20:29:54.746Z,15.73
2018-06-11T20:32:21.888Z,15.81
2018-06-11T20:34:48.926Z,15.76
2018-06-11T20:37:16.062Z,15.72
2018-06-11T20:39:43.706Z,15.72
2018-06-11T20:42:10.921Z,15.69
2018-06-11T20:44:38.188Z,15.73
2018-06-11T20:47:05.637Z,15.65
2018-06-11T20:49:32.656Z,15.74
2018-06-11T20:51:59.665Z,15.67
2018-06-11T20:54:26.971Z,15.88
2018-06-11T20:56:54.899Z,15.86
2018-06-11T20:59:22.637Z,15.90
2018-06-11T21:01:50.244Z,15.72
2018-06-11T21:04:17.558Z,15.81
2018-06-11T21:06:44.575Z,15.71
2018-06-11T21:09:11.849Z,15.76
2018-06-11T21:11:38.881Z,15.90
2018-06-11T21:14:05.916Z,15.83
2018-06-11T21:16:33.034Z,15.83
2018-06-11T21:19:01.291Z,15.61
2018-06-11T21:21:28.534Z,15.48
2018-06-11T21:23:56.147Z,15.40
2018-06-11T21:26:24.532Z,15.41
2018-06-11T21:28:51.576Z,15.35
2018-06-11T21:31:18.684Z,15.41
2018-06-11T21:33:45.699Z,15.38
2018-06-11T21:36:12.869Z,15.30
2018-06-11T21:38:39.882Z,15.36
2018-06-11T21:41:10.741Z,15.25
2018-06-11T21:43:37.944Z,15.27
2018-06-11T21:46:05.048Z,15.33
2018-06-11T21:48:32.180Z,15.29
2018-06-11T21:50:59.227Z,15.23
2018-06-11T21:53:26.373Z,15.28
2018-06-11T21:55:53.387Z,15.17
2018-06-11T21:58:20.495Z,15.15
2018-06-11T22:00:47.570Z,15.19
2018-06-11T22:03:14.655Z,15.17
2018-06-11T22:05:41.669Z,15.21
2018-06-11T22:08:08.800Z,15.15
2018-06-11T22:10:35.819Z,15.11
2018-06-11T22:13:02.980Z,15.16
2018-06-11T22:15:30.031Z,15.17
2018-06-11T22:17:57.037Z,15.16
2018-06-11T22:20:24.054Z,15.19
2018-06-11T22:22:51.197Z,15.26
2018-06-11T22:25:24.966Z,15.23
2018-06-11T22:27:52.011Z,15.14
2018-06-11T22:30:19.095Z,15.08
2018-06-11T22:32:46.206Z,15.15
2018-06-11T22:35:13.231Z,15.16
2018-06-11T22:37:40.242Z,15.16
2018-06-11T22:40:07.287Z,15.02
2018-06-11T22:42:34.397Z,14.98
2018-06-11T22:45:01.428Z,14.88
2018-06-11T22:47:28.656Z,14.87
2018-06-11T22:49:55.742Z,14.80
2018-06-11T22:52:22.793Z,14.72
2018-06-11T22:54:49.899Z,14.85
2018-06-11T22:57:23.803Z,14.79
2018-06-11T22:59:50.992Z,14.88
2018-06-11T23:02:18.014Z,14.78
2018-06-11T23:04:45.039Z,14.81
2018-06-11T23:07:12.148Z,14.70
2018-06-11T23:09:39.285Z,14.71
2018-06-11T23:12:06.312Z,14.70
2018-06-11T23:14:33.320Z,14.70
2018-06-11T23:17:00.321Z,14.78
2018-06-11T23:19:27.474Z,14.73
2018-06-11T23:21:54.571Z,14.67
2018-06-11T23:24:21.679Z,14.71
2018-06-11T23:26:48.906Z,14.78
2018-06-11T23:29:15.997Z,14.79
2018-06-11T23:31:43.071Z,14.77
2018-06-11T23:34:10.086Z,14.76
2018-06-11T23:36:37.202Z,14.73
2018-06-11T23:39:06.255Z,14.77
2018-06-11T23:41:33.396Z,14.81
2018-06-11T23:44:00.501Z,14.71
2018-06-11T23:46:27.536Z,14.84
2018-06-11T23:48:54.634Z,14.94
2018-06-11T23:51:21.810Z,14.96
2018-06-11T23:53:48.921Z,14.85
2018-06-11T23:56:15.945Z,14.74
2018-06-11T23:58:42.994Z,14.85
